createdAt,value
2024-01-09T00:00:35.268Z,101010.19
2024-01-09T00:03:37.081Z,100997.03
2024-01-09T00:06:38.948Z,100915.25
2024-01-09T00:09:40.697Z,100996.13
2024-01-09T00:12:42.554Z,100999.72
2024-01-09T00:15:44.509Z,101032.22
2024-01-09T00:18:46.382Z,101000.63
2024-01-09T00:21:50.965Z,101038.41
2024-01-09T00:24:52.692Z,101033.19
2024-01-09T00:27:54.474Z,101043.81
2024-01-09T00:30:56.247Z,101026.13
2024-01-09T00:33:58.212Z,101015.59
2024-01-09T00:37:00.034Z,101081.47
2024-01-09T00:40:02.294Z,101109.59
2024-01-09T00:43:04.142Z,101134.16
2024-01-09T00:46:05.960Z,101090.31
2024-01-09T00:49:07.705Z,101056.06
2024-01-09T00:52:09.534Z,101064.00
2024-01-09T00:55:11.942Z,101091.28
2024-01-09T00:58:13.622Z,101128.09
2024-01-09T01:01:15.508Z,101133.38
2024-01-09T01:04:18.520Z,101074.63
2024-01-09T01:07:20.395Z,101053.84
2024-01-09T01:10:22.198Z,101126.44
2024-01-09T01:13:23.972Z,101145.75
2024-01-09T01:16:25.747Z,101130.84
2024-01-09T01:19:27.514Z,101169.44
2024-01-09T01:22:29.295Z,101185.25
2024-01-09T01:25:31.085Z,101133.41
2024-01-09T01:28:32.880Z,101121.16
2024-01-09T01:31:34.643Z,101122.91
2024-01-09T01:34:36.970Z,101113.22
2024-01-09T01:37:38.728Z,101158.81
2024-01-09T01:40:40.519Z,101136.03
2024-01-09T01:43:42.317Z,101164.94
2024-01-09T01:46:45.299Z,101123.69
2024-01-09T01:49:47.145Z,101157.03
2024-01-09T01:52:48.961Z,101094.69
2024-01-09T01:55:50.702Z,101113.97
2024-01-09T01:58:52.773Z,101181.53
2024-01-09T02:01:54.635Z,101134.19
2024-01-09T02:04:56.613Z,101153.47
2024-01-09T02:07:58.819Z,101147.38
2024-01-09T02:11:00.435Z,101184.19
2024-01-09T02:14:02.184Z,101186.81
2024-01-09T02:17:04.230Z,101173.66
2024-01-09T02:20:12.532Z,101178.97
2024-01-09T02:23:14.273Z,101185.09
2024-01-09T02:26:39.047Z,101190.34
2024-01-09T02:29:50.400Z,101131.53
2024-01-09T02:32:53.097Z,101204.41
2024-01-09T02:35:55.010Z,101191.28
2024-01-09T02:38:56.860Z,101221.97
2024-01-09T02:41:58.671Z,101223.72
2024-01-09T02:45:00.438Z,101240.41
2024-01-09T02:48:02.324Z,101242.19
2024-01-09T02:51:04.313Z,101225.50
2024-01-09T02:54:06.069Z,101240.44
2024-01-09T02:57:07.829Z,101221.22
2024-01-09T03:00:10.283Z,101256.28
2024-01-09T03:03:12.231Z,101248.41
2024-01-09T03:06:14.250Z,101258.03
2024-01-09T03:09:17.253Z,101279.12
2024-01-09T03:12:18.958Z,101283.50
2024-01-09T03:15:20.723Z,101266.88
2024-01-09T03:18:22.575Z,101298.47
2024-01-09T03:21:24.485Z,101276.53
2024-01-09T03:24:26.314Z,101301.97
2024-01-09T03:27:27.995Z,101303.75
2024-01-09T03:30:31.016Z,101313.38
2024-01-09T03:33:33.148Z,101296.72
2024-01-09T03:36:35.216Z,101309.03
2024-01-09T03:39:37.353Z,101327.44
2024-01-09T03:42:39.040Z,101317.78
2024-01-09T03:45:41.020Z,101310.78
2024-01-09T03:48:42.805Z,101331.81
2024-01-09T03:51:44.617Z,101323.94
2024-01-09T03:54:46.308Z,101298.47
2024-01-09T03:57:48.048Z,101302.00
2024-01-09T04:00:50.225Z,101346.72
2024-01-09T04:03:52.125Z,101345.84
2024-01-09T04:06:53.785Z,101331.81
2024-01-09T04:09:55.524Z,101361.63
2024-01-09T04:12:57.244Z,101370.38
2024-01-09T04:15:58.976Z,101379.13
2024-01-09T04:19:00.996Z,101358.09
2024-01-09T04:22:03.067Z,101362.50
2024-01-09T04:25:05.228Z,101378.25
2024-01-09T04:28:07.153Z,101369.47
2024-01-09T04:31:08.936Z,101365.09
2024-01-09T04:34:10.756Z,101382.63
2024-01-09T04:37:12.544Z,101379.09
2024-01-09T04:40:14.387Z,101382.59
2024-01-09T04:43:16.092Z,101394.00
2024-01-09T04:46:17.819Z,101380.84
2024-01-09T04:49:19.607Z,101404.53
2024-01-09T04:52:21.307Z,101401.00
2024-01-09T04:55:22.984Z,101404.56
2024-01-09T04:58:24.749Z,101402.78
2024-01-09T05:01:26.762Z,101397.53
2024-01-09T05:04:31.553Z,101386.16
2024-01-09T05:07:33.299Z,101400.16
2024-01-09T05:10:34.996Z,101407.19
2024-01-09T05:13:37.131Z,101417.69
2024-01-09T05:16:39.935Z,101407.19
2024-01-09T05:19:41.934Z,101410.69
2024-01-09T05:27:05.595Z,101424.75
2024-01-09T05:30:09.360Z,101450.19
2024-01-09T05:33:11.544Z,101451.03
2024-01-09T05:36:14.966Z,101437.00
2024-01-09T05:39:16.665Z,101433.53
2024-01-09T05:42:18.312Z,101424.72
2024-01-09T05:45:20.040Z,101452.81
2024-01-09T05:48:21.930Z,101451.06
2024-01-09T05:51:23.771Z,101449.28
2024-01-09T05:54:25.516Z,101465.09
2024-01-09T05:57:27.303Z,101461.59
2024-01-09T06:00:29.015Z,101450.19
2024-01-09T06:03:30.743Z,101452.84
2024-01-09T06:06:32.922Z,101465.13
2024-01-09T06:09:34.762Z,101470.41
2024-01-09T06:12:36.662Z,101484.44
2024-01-09T06:15:38.601Z,101494.13
2024-01-09T06:18:41.225Z,101449.34
2024-01-09T06:21:43.162Z,101460.78
2024-01-09T06:24:44.919Z,101467.78
2024-01-09T06:27:46.661Z,101448.47
2024-01-09T06:30:48.446Z,101437.06
2024-01-09T06:33:51.343Z,101431.81
2024-01-09T06:36:53.543Z,101437.06
2024-01-09T06:39:55.252Z,101470.44
2024-01-09T06:42:57.123Z,101467.78
2024-01-09T06:45:59.163Z,101494.97
2024-01-09T06:49:01.026Z,101486.22
2024-01-09T06:52:04.310Z,101536.25
2024-01-09T06:55:06.421Z,101533.62
2024-01-09T06:58:09.230Z,101542.41
2024-01-09T07:01:14.187Z,101527.47
2024-01-09T07:04:17.156Z,101520.47
2024-01-09T07:07:19.178Z,101530.12
2024-01-09T07:10:22.549Z,101547.69
2024-01-09T07:13:24.816Z,101528.34
2024-01-09T07:16:26.518Z,101559.13
2024-01-09T07:19:28.272Z,101556.47
2024-01-09T07:22:30.035Z,101579.31
2024-01-09T07:25:31.897Z,101579.28
2024-01-09T07:28:33.668Z,101580.19
2024-01-09T07:31:35.394Z,101574.91
2024-01-09T07:34:37.189Z,101580.16
2024-01-09T07:37:39.120Z,101519.59
2024-01-09T07:40:40.866Z,101575.78
2024-01-09T07:43:42.654Z,101585.44
2024-01-09T07:46:44.453Z,101577.53
2024-01-09T07:49:46.286Z,101565.25
2024-01-09T07:52:48.095Z,101564.38
2024-01-09T07:55:49.838Z,101589.81
2024-01-09T07:58:51.509Z,101548.53
2024-01-09T08:01:56.566Z,101552.03
2024-01-09T08:04:59.036Z,101537.09
2024-01-09T08:08:00.840Z,101559.09
2024-01-09T08:11:02.619Z,101564.34
2024-01-09T08:14:04.358Z,101539.75
2024-01-09T08:17:06.482Z,101556.41
2024-01-09T08:20:08.437Z,101588.91
2024-01-09T08:23:11.231Z,101575.69
2024-01-09T08:26:14.306Z,101547.16
2024-01-09T08:29:19.138Z,101517.84
2024-01-09T08:32:21.027Z,101558.53
2024-01-09T08:35:22.879Z,101556.13
2024-01-09T08:38:24.685Z,101582.59
2024-01-09T08:41:26.610Z,101580.81
2024-01-09T08:44:28.453Z,101593.13
2024-01-09T08:47:30.271Z,101572.06
2024-01-09T08:50:32.140Z,101616.91
2024-01-09T08:53:34.227Z,101572.03
2024-01-09T08:56:36.526Z,101612.50
2024-01-09T08:59:38.405Z,101585.22
2024-01-09T09:02:40.192Z,101592.25
2024-01-09T09:05:42.332Z,101608.94
2024-01-09T09:08:45.275Z,101590.41
2024-01-09T09:11:47.048Z,101571.91
2024-01-09T09:14:49.042Z,101585.03
2024-01-09T09:17:50.865Z,101554.16
2024-01-09T09:20:52.698Z,101582.31
2024-01-09T09:23:54.607Z,101576.03
2024-01-09T09:26:56.493Z,101571.56
2024-01-09T09:29:58.284Z,101534.66
2024-01-09T09:33:00.281Z,101523.34
2024-01-09T09:36:08.582Z,101542.66
2024-01-09T09:39:11.806Z,101554.94
2024-01-09T09:42:13.636Z,101535.63
2024-01-09T09:45:15.680Z,101557.56
2024-01-09T09:48:21.233Z,101582.19
2024-01-09T09:51:27.225Z,101590.06
2024-01-09T09:54:32.558Z,101602.41
2024-01-09T09:57:34.300Z,101581.28
2024-01-09T10:00:36.195Z,101582.13
2024-01-09T10:03:45.122Z,101540.88
2024-01-09T10:06:47.816Z,101524.09
2024-01-09T10:09:54.758Z,101567.19
2024-01-09T10:12:58.639Z,101550.50
2024-01-09T10:16:02.543Z,101534.69
2024-01-09T10:19:04.512Z,101532.84
2024-01-09T10:22:06.539Z,101550.34
2024-01-09T10:25:12.719Z,101559.88
2024-01-09T10:28:18.222Z,101548.34
2024-01-09T10:31:20.445Z,101536.78
2024-01-09T10:34:22.459Z,101516.31
2024-01-09T10:37:25.237Z,101517.09
2024-01-09T10:40:27.388Z,101526.62
2024-01-09T10:43:30.330Z,101544.97
2024-01-09T10:46:34.717Z,101542.13
2024-01-09T10:49:40.556Z,101530.69
2024-01-09T10:52:43.687Z,101455.97
2024-01-09T10:55:46.193Z,101439.50
2024-01-09T10:58:49.508Z,101521.16
2024-01-09T11:01:52.352Z,101535.25
2024-01-09T11:04:54.097Z,101514.87
2024-01-09T11:07:56.632Z,101537.06
2024-01-09T11:10:58.888Z,101520.41
2024-01-09T11:14:07.712Z,101552.06
2024-01-09T11:17:10.757Z,101542.31
2024-01-09T11:20:13.286Z,101571.38
2024-01-09T11:23:15.085Z,101574.84
2024-01-09T11:26:16.934Z,101560.88
2024-01-09T11:29:51.678Z,101582.78
2024-01-09T11:32:54.134Z,101556.19
2024-01-09T11:35:56.356Z,101552.75
2024-01-09T11:38:58.615Z,101546.56
2024-01-09T11:42:00.486Z,101547.47
2024-01-09T11:45:10.909Z,101582.75
2024-01-09T11:48:15.211Z,101577.50
2024-01-09T11:51:17.950Z,101557.19
2024-01-09T11:54:20.716Z,101567.81
2024-01-09T11:57:22.891Z,101566.16
2024-01-09T12:00:24.795Z,101564.34
2024-01-09T12:03:26.621Z,101554.63
2024-01-09T12:06:30.406Z,101537.81
2024-01-09T12:09:32.282Z,101586.13
2024-01-09T12:12:34.106Z,101595.84
2024-01-09T12:15:35.777Z,101546.50
2024-01-09T12:18:52.153Z,101587.03
2024-01-09T12:21:54.072Z,101593.16
2024-01-09T12:24:57.027Z,101590.41
2024-01-09T12:28:00.961Z,101586.00
2024-01-09T12:31:03.346Z,101579.09
2024-01-09T12:34:06.486Z,101612.47
2024-01-09T12:37:10.243Z,101593.97
2024-01-09T12:40:17.183Z,101594.81
2024-01-09T12:43:20.495Z,101597.41
2024-01-09T12:46:22.984Z,101612.31
2024-01-09T12:49:24.786Z,101617.63
2024-01-09T12:52:26.692Z,101588.47
2024-01-09T12:55:30.028Z,101624.69
2024-01-09T12:58:33.195Z,101610.56
2024-01-09T13:01:34.971Z,101617.69
2024-01-09T13:04:36.900Z,101623.03
2024-01-09T13:07:38.619Z,101634.59
2024-01-09T13:10:41.734Z,101632.91
2024-01-09T13:13:43.907Z,101639.28
2024-01-09T13:16:46.415Z,101639.28
2024-01-09T13:19:51.288Z,101663.06
2024-01-09T13:26:02.504Z,101638.25
2024-01-09T13:30:43.519Z,101674.44
2024-01-09T13:32:29.035Z,101629.44
2024-01-09T13:35:33.525Z,101642.78
2024-01-09T13:38:38.760Z,101669.31
2024-01-09T13:41:40.497Z,101663.22
2024-01-09T13:44:42.957Z,101687.09
2024-01-09T13:47:44.761Z,101695.94
2024-01-09T13:51:49.147Z,101701.19
2024-01-09T13:54:09.337Z,101705.59
2024-01-09T13:57:13.342Z,101714.38
2024-01-09T14:00:17.657Z,101720.50
2024-01-09T14:03:19.842Z,101713.44
2024-01-09T14:06:21.795Z,101729.31
2024-01-09T14:09:23.879Z,101725.81
2024-01-09T14:12:26.131Z,101716.16
2024-01-09T14:15:28.195Z,101739.97
2024-01-09T14:18:30.334Z,101752.34
2024-01-09T14:21:35.193Z,101751.50
2024-01-09T14:24:37.927Z,101740.94
2024-01-09T14:27:39.659Z,101751.59
2024-01-09T14:30:41.386Z,101751.66
2024-01-09T14:33:43.500Z,101759.66
2024-01-09T14:36:45.242Z,101772.94
2024-01-09T14:39:47.501Z,101791.50
2024-01-09T14:42:49.602Z,101792.44
2024-01-09T14:45:51.316Z,101806.59
2024-01-09T14:48:53.242Z,101833.09
2024-01-09T14:51:55.200Z,101819.94
2024-01-09T14:54:57.003Z,101841.13
2024-01-09T14:57:58.841Z,101875.53
2024-01-09T15:01:00.937Z,101886.12
2024-01-09T15:04:02.870Z,101899.34
2024-01-09T15:07:04.649Z,101924.91
2024-01-09T15:10:06.805Z,101934.56
2024-01-09T15:13:08.616Z,101961.84
2024-01-09T15:16:10.677Z,101966.22
2024-01-09T15:19:12.738Z,101982.91
2024-01-09T15:22:17.269Z,101990.78
2024-01-09T15:25:19.099Z,101998.66
2024-01-09T15:28:21.620Z,102008.28
2024-01-09T15:31:23.711Z,102022.28
2024-01-09T15:34:25.835Z,102025.72
2024-01-09T15:37:27.973Z,102035.31
2024-01-09T15:40:29.739Z,102057.16
2024-01-09T15:43:33.726Z,102048.22
2024-01-09T15:46:35.745Z,102069.28
2024-01-09T15:49:40.616Z,102066.56
2024-01-09T15:52:42.584Z,102070.03
2024-01-09T15:55:44.479Z,102072.66
2024-01-09T15:58:46.301Z,102082.28
2024-01-09T16:01:48.024Z,102086.56
2024-01-09T16:04:50.157Z,102085.66
2024-01-09T16:07:54.990Z,102087.37
2024-01-09T16:10:56.915Z,102073.25
2024-01-09T16:13:58.762Z,102067.09
2024-01-09T16:17:00.554Z,102071.44
2024-01-09T16:20:02.965Z,102061.72
2024-01-09T16:23:05.125Z,102059.03
2024-01-09T16:26:09.610Z,102096.50
2024-01-09T16:29:12.065Z,102106.03
2024-01-09T16:32:14.055Z,102121.75
2024-01-09T16:35:16.233Z,102134.84
2024-01-09T16:38:18.007Z,102146.22
2024-01-09T16:41:20.229Z,102120.75
2024-01-09T16:44:23.365Z,102140.81
2024-01-09T16:47:25.193Z,102130.25
2024-01-09T16:50:27.091Z,102107.56
2024-01-09T16:53:29.275Z,102092.69
2024-01-09T16:56:31.418Z,102091.84
2024-01-09T16:59:33.151Z,102089.25
2024-01-09T17:02:35.265Z,102115.56
2024-01-09T17:05:38.203Z,102118.13
2024-01-09T17:08:40.312Z,102125.97
2024-01-09T17:11:42.597Z,102128.59
2024-01-09T17:14:47.318Z,102135.66
2024-01-09T17:17:49.515Z,102125.94
2024-01-09T17:20:51.316Z,102114.47
2024-01-09T17:23:53.136Z,102048.81
2024-01-09T17:26:54.985Z,102046.06
2024-01-09T17:29:57.055Z,102083.94
2024-01-09T17:32:59.147Z,102090.91
2024-01-09T17:36:01.206Z,102084.84
2024-01-09T17:39:03.297Z,102066.28
2024-01-09T17:42:05.349Z,102072.25
2024-01-09T17:45:09.312Z,102095.03
2024-01-09T17:48:11.968Z,102114.28
2024-01-09T17:51:14.142Z,102126.34
2024-01-09T17:54:15.917Z,102141.25
2024-01-09T17:57:17.888Z,102152.59
2024-01-09T18:00:20.131Z,102157.72
2024-01-09T18:03:22.088Z,102157.62
2024-01-09T18:06:24.005Z,102160.19
2024-01-09T18:09:30.549Z,102166.19
2024-01-09T18:12:34.407Z,102178.38
2024-01-09T18:15:36.428Z,102184.47
2024-01-09T18:18:38.614Z,102184.47
2024-01-09T18:21:43.843Z,102198.38
2024-01-09T18:24:45.752Z,102203.53
2024-01-09T18:27:47.812Z,102201.59
2024-01-09T18:30:49.536Z,102213.84
2024-01-09T18:33:52.728Z,102238.00
2024-01-09T18:36:54.793Z,102245.94
2024-01-09T18:39:58.718Z,102248.50
2024-01-09T18:43:00.725Z,102245.84
2024-01-09T18:46:03.134Z,102249.28
2024-01-09T18:49:05.212Z,102242.16
2024-01-09T18:52:07.326Z,102251.72
2024-01-09T18:55:09.576Z,102257.72
2024-01-09T18:58:11.393Z,102248.03
2024-01-09T19:01:13.252Z,102257.53
2024-01-09T19:04:16.034Z,102261.78
2024-01-09T19:07:17.984Z,102257.25
2024-01-09T19:10:19.865Z,102265.94
2024-01-09T19:13:21.743Z,102258.97
2024-01-09T19:16:23.815Z,102255.28
2024-01-09T19:19:26.113Z,102262.38
2024-01-09T19:22:28.213Z,102270.19
2024-01-09T19:25:30.469Z,102267.44
2024-01-09T19:28:32.415Z,102273.50
2024-01-09T19:31:34.902Z,102281.28
2024-01-09T19:34:41.536Z,102275.84
2024-01-09T19:37:44.880Z,102275.75
2024-01-09T19:40:47.316Z,102282.62
2024-01-09T19:43:49.300Z,102290.25
2024-01-09T19:46:51.301Z,102308.34
2024-01-09T19:49:53.447Z,102310.78
2024-01-09T19:52:56.930Z,102294.28
2024-01-09T19:55:59.355Z,102290.84
2024-01-09T19:59:01.572Z,102293.47
2024-01-09T20:02:03.826Z,102248.22
2024-01-09T20:05:06.674Z,102298.22
2024-01-09T20:08:09.250Z,102303.25
2024-01-09T20:11:28.197Z,102285.66
2024-01-09T20:14:30.316Z,102297.16
2024-01-09T20:17:32.494Z,102284.06
2024-01-09T20:20:34.718Z,102278.03
2024-01-09T20:23:36.863Z,102290.25
2024-01-09T20:26:39.326Z,102280.59
2024-01-09T20:29:43.205Z,102285.81
2024-01-09T20:32:45.168Z,102290.16
2024-01-09T20:35:47.974Z,102290.16
2024-01-09T20:38:52.800Z,102290.16
2024-01-09T20:41:54.867Z,102297.97
2024-01-09T20:44:57.068Z,102299.72
2024-01-09T20:47:59.675Z,102304.87
2024-01-09T20:51:05.051Z,102295.25
2024-01-09T20:54:09.608Z,102296.94
2024-01-09T20:57:11.561Z,102301.28
2024-01-09T21:00:13.985Z,102297.66
2024-01-09T21:03:16.501Z,102298.37
2024-01-09T21:06:18.371Z,102298.34
2024-01-09T21:09:20.346Z,102294.63
2024-01-09T21:12:23.243Z,102295.56
2024-01-09T21:15:25.257Z,102291.03
2024-01-09T21:18:27.288Z,102291.88
2024-01-09T21:21:29.306Z,102295.16
2024-01-09T21:24:31.109Z,102292.41
2024-01-09T21:27:35.259Z,102296.75
2024-01-09T21:30:38.004Z,102299.28
2024-01-09T21:33:40.021Z,102307.06
2024-01-09T21:36:42.170Z,102300.81
2024-01-09T21:39:44.457Z,102293.72
2024-01-09T21:42:46.364Z,102299.81
2024-01-09T21:45:48.200Z,102311.09
2024-01-09T21:48:50.875Z,102305.84
2024-01-09T21:51:52.816Z,102304.84
2024-01-09T21:54:54.526Z,102306.56
2024-01-09T21:57:56.410Z,102306.47
2024-01-09T22:00:58.607Z,102312.50
2024-01-09T22:04:00.547Z,102307.25
2024-01-09T22:07:09.086Z,102315.84
2024-01-09T22:10:12.337Z,102317.47
2024-01-09T22:17:23.467Z,102330.44
2024-01-09T22:20:25.323Z,102320.59
2024-01-09T22:23:27.237Z,102315.25
2024-01-09T22:26:28.970Z,102321.37
2024-01-09T22:29:30.712Z,102320.41
2024-01-09T22:32:32.751Z,102253.50
2024-01-09T22:35:34.698Z,102320.25
2024-01-09T22:38:36.630Z,102317.59
2024-01-09T22:41:38.437Z,102324.53
2024-01-09T22:44:40.207Z,102305.13
2024-01-09T22:47:41.986Z,102319.25
2024-01-09T22:50:46.002Z,102313.94
2024-01-09T22:53:47.899Z,102309.44
2024-01-09T22:56:49.641Z,102300.69
2024-01-09T22:59:51.658Z,102302.34
2024-01-09T23:02:57.414Z,102308.37
2024-01-09T23:05:59.476Z,102302.25
2024-01-09T23:09:01.154Z,102296.03
2024-01-09T23:12:02.942Z,102308.22
2024-01-09T23:15:05.094Z,102309.72
2024-01-09T23:18:07.375Z,102295.69
2024-01-09T23:21:09.244Z,102302.59
2024-01-09T23:24:11.012Z,102304.37
2024-01-09T23:27:12.737Z,102294.66
2024-01-09T23:30:14.754Z,102298.09
2024-01-09T23:33:16.571Z,102292.72
2024-01-09T23:36:18.449Z,102304.00
2024-01-09T23:39:20.112Z,102296.84
2024-01-09T23:42:21.809Z,102292.41
2024-01-09T23:45:23.551Z,102292.31
2024-01-09T23:48:25.697Z,102294.91
2024-01-09T23:51:27.721Z,102290.50
2024-01-09T23:54:29.532Z,102284.37
2024-01-09T23:57:31.241Z,102286.91
